sensor_id;sensor_type;location;lat;lon;timestamp;temperature;humidity
18794;DHT22;29610;49.022;12.114;2022-11-20T00:01:39;0.60;99.90
18794;DHT22;29610;49.022;12.114;2022-11-20T00:04:09;0.50;99.90
18794;DHT22;29610;49.022;12.114;2022-11-20T00:06:39;0.50;99.90
18794;DHT22;29610;49.022;12.114;2022-11-20T00:09:10;0.60;99.90
18794;DHT22;29610;49.022;12.114;2022-11-20T00:11:38;0.50;99.90
18794;DHT22;29610;49.022;12.114;2022-11-20T00:14:10;0.50;99.90
18794;DHT22;29610;49.022;12.114;2022-11-20T00:16:38;0.50;99.90
18794;DHT22;29610;49.022;12.114;2022-11-20T00:19:07;0.50;99.90
18794;DHT22;29610;49.022;12.114;2022-11-20T00:21:38;0.40;99.90
18794;DHT22;29610;49.022;12.114;2022-11-20T00:24:08;0.40;99.90
18794;DHT22;29610;49.022;12.114;2022-11-20T00:26:37;0.40;99.90
18794;DHT22;29610;49.022;12.114;2022-11-20T00:29:09;0.40;99.90
18794;DHT22;29610;49.022;12.114;2022-11-20T00:31:38;0.40;99.90
18794;DHT22;29610;49.022;12.114;2022-11-20T00:34:06;0.40;99.90
18794;DHT22;29610;49.022;12.114;2022-11-20T00:36:35;0.40;99.90
18794;DHT22;29610;49.022;12.114;2022-11-20T00:39:04;0.40;99.90
18794;DHT22;29610;49.022;12.114;2022-11-20T00:41:32;0.40;99.90
18794;DHT22;29610;49.022;12.114;2022-11-20T00:44:01;0.40;99.90
18794;DHT22;29610;49.022;12.114;2022-11-20T00:46:31;0.50;99.90
18794;DHT22;29610;49.022;12.114;2022-11-20T00:49:00;0.40;99.90
18794;DHT22;29610;49.022;12.114;2022-11-20T00:51:28;0.50;99.90
18794;DHT22;29610;49.022;12.114;2022-11-20T00:53:58;0.50;99.90
18794;DHT22;29610;49.022;12.114;2022-11-20T00:56:29;0.60;99.90
18794;DHT22;29610;49.022;12.114;2022-11-20T00:58:59;0.60;99.90
18794;DHT22;29610;49.022;12.114;2022-11-20T01:01:30;0.50;99.90
18794;DHT22;29610;49.022;12.114;2022-11-20T01:04:00;0.60;99.90
18794;DHT22;29610;49.022;12.114;2022-11-20T01:06:30;0.60;99.90
18794;DHT22;29610;49.022;12.114;2022-11-20T01:09:03;0.60;99.90
18794;DHT22;29610;49.022;12.114;2022-11-20T01:11:35;0.60;99.90
18794;DHT22;29610;49.022;12.114;2022-11-20T01:14:09;0.60;99.90
18794;DHT22;29610;49.022;12.114;2022-11-20T01:16:44;0.50;99.90
18794;DHT22;29610;49.022;12.114;2022-11-20T01:19:16;0.50;99.90
18794;DHT22;29610;49.022;12.114;2022-11-20T01:21:48;0.40;99.90
18794;DHT22;29610;49.022;12.114;2022-11-20T01:24:20;0.40;99.90
18794;DHT22;29610;49.022;12.114;2022-11-20T01:26:51;0.40;99.90
18794;DHT22;29610;49.022;12.114;2022-11-20T01:29:21;0.30;99.90
18794;DHT22;29610;49.022;12.114;2022-11-20T01:31:53;0.40;99.90
18794;DHT22;29610;49.022;12.114;2022-11-20T01:34:22;0.50;99.90
18794;DHT22;29610;49.022;12.114;2022-11-20T01:36:52;0.40;99.90
18794;DHT22;29610;49.022;12.114;2022-11-20T01:39:22;0.40;99.90
18794;DHT22;29610;49.022;12.114;2022-11-20T01:41:54;0.50;99.90
18794;DHT22;29610;49.022;12.114;2022-11-20T01:44:51;0.50;99.90
18794;DHT22;29610;49.022;12.114;2022-11-20T01:47:27;0.50;99.90
18794;DHT22;29610;49.022;12.114;2022-11-20T01:50:04;0.50;99.90
18794;DHT22;29610;49.022;12.114;2022-11-20T01:52:41;0.60;99.90
18794;DHT22;29610;49.022;12.114;2022-11-20T01:55:16;0.60;99.90
18794;DHT22;29610;49.022;12.114;2022-11-20T01:57:48;0.50;99.90
18794;DHT22;29610;49.022;12.114;2022-11-20T02:00:19;0.60;99.90
18794;DHT22;29610;49.022;12.114;2022-11-20T02:02:52;0.60;99.90
18794;DHT22;29610;49.022;12.114;2022-11-20T02:05:28;0.70;99.90
18794;DHT22;29610;49.022;12.114;2022-11-20T02:08:02;0.60;99.90
18794;DHT22;29610;49.022;12.114;2022-11-20T02:10:33;0.70;99.90
18794;DHT22;29610;49.022;12.114;2022-11-20T02:13:02;0.70;99.90
18794;DHT22;29610;49.022;12.114;2022-11-20T02:15:49;0.60;99.90
18794;DHT22;29610;49.022;12.114;2022-11-20T02:18:20;0.60;99.90
18794;DHT22;29610;49.022;12.114;2022-11-20T02:20:53;0.70;99.90
18794;DHT22;29610;49.022;12.114;2022-11-20T02:23:32;0.70;99.90
18794;DHT22;29610;49.022;12.114;2022-11-20T02:26:10;0.80;99.90
18794;DHT22;29610;49.022;12.114;2022-11-20T02:28:42;0.70;99.90
18794;DHT22;29610;49.022;12.114;2022-11-20T02:31:11;0.60;99.90
18794;DHT22;29610;49.022;12.114;2022-11-20T02:33:39;0.60;99.90
18794;DHT22;29610;49.022;12.114;2022-11-20T02:36:11;0.70;99.90
18794;DHT22;29610;49.022;12.114;2022-11-20T02:38:43;0.70;99.90
18794;DHT22;29610;49.022;12.114;2022-11-20T02:41:13;0.70;99.90
18794;DHT22;29610;49.022;12.114;2022-11-20T02:43:41;0.70;99.90
18794;DHT22;29610;49.022;12.114;2022-11-20T02:46:10;0.80;99.90
18794;DHT22;29610;49.022;12.114;2022-11-20T02:48:39;0.70;99.90
18794;DHT22;29610;49.022;12.114;2022-11-20T02:51:07;0.70;99.90
18794;DHT22;29610;49.022;12.114;2022-11-20T02:53:36;0.80;99.90
18794;DHT22;29610;49.022;12.114;2022-11-20T02:56:06;0.90;99.90
18794;DHT22;29610;49.022;12.114;2022-11-20T02:58:37;0.80;99.90
18794;DHT22;29610;49.022;12.114;2022-11-20T03:01:05;0.90;99.90
18794;DHT22;29610;49.022;12.114;2022-11-20T03:03:34;0.80;99.90
18794;DHT22;29610;49.022;12.114;2022-11-20T03:06:03;0.80;99.90
18794;DHT22;29610;49.022;12.114;2022-11-20T03:08:32;0.70;99.90
18794;DHT22;29610;49.022;12.114;2022-11-20T03:11:05;0.80;99.90
18794;DHT22;29610;49.022;12.114;2022-11-20T03:13:36;0.70;99.90
18794;DHT22;29610;49.022;12.114;2022-11-20T03:16:10;0.80;99.90
18794;DHT22;29610;49.022;12.114;2022-11-20T03:18:40;0.70;99.90
18794;DHT22;29610;49.022;12.114;2022-11-20T03:21:11;0.60;99.90
18794;DHT22;29610;49.022;12.114;2022-11-20T03:23:41;0.60;99.90
18794;DHT22;29610;49.022;12.114;2022-11-20T03:26:12;0.70;99.90
18794;DHT22;29610;49.022;12.114;2022-11-20T03:28:48;0.70;99.90
18794;DHT22;29610;49.022;12.114;2022-11-20T03:31:19;0.70;99.90
18794;DHT22;29610;49.022;12.114;2022-11-20T03:33:50;0.60;99.90
18794;DHT22;29610;49.022;12.114;2022-11-20T03:36:21;0.70;99.90
18794;DHT22;29610;49.022;12.114;2022-11-20T03:38:50;0.70;99.90
18794;DHT22;29610;49.022;12.114;2022-11-20T03:41:20;0.80;99.90
18794;DHT22;29610;49.022;12.114;2022-11-20T03:43:53;0.70;99.90
18794;DHT22;29610;49.022;12.114;2022-11-20T03:46:23;0.70;99.90
18794;DHT22;29610;49.022;12.114;2022-11-20T03:48:53;0.70;99.90
18794;DHT22;29610;49.022;12.114;2022-11-20T03:51:23;0.70;99.90
18794;DHT22;29610;49.022;12.114;2022-11-20T03:53:55;0.70;99.90
18794;DHT22;29610;49.022;12.114;2022-11-20T03:56:27;0.80;99.90
18794;DHT22;29610;49.022;12.114;2022-11-20T03:58:59;0.70;99.90
18794;DHT22;29610;49.022;12.114;2022-11-20T04:01:30;0.80;99.90
18794;DHT22;29610;49.022;12.114;2022-11-20T04:04:01;0.80;99.90
18794;DHT22;29610;49.022;12.114;2022-11-20T04:06:32;0.90;99.90
18794;DHT22;29610;49.022;12.114;2022-11-20T04:09:03;0.90;99.90
18794;DHT22;29610;49.022;12.114;2022-11-20T04:11:34;0.90;99.90
18794;DHT22;29610;49.022;12.114;2022-11-20T04:14:12;1.00;99.90
18794;DHT22;29610;49.022;12.114;2022-11-20T04:16:42;1.10;99.90
18794;DHT22;29610;49.022;12.114;2022-11-20T04:19:13;1.00;99.90
18794;DHT22;29610;49.022;12.114;2022-11-20T04:21:43;1.00;99.90
18794;DHT22;29610;49.022;12.114;2022-11-20T04:24:12;1.00;99.90
18794;DHT22;29610;49.022;12.114;2022-11-20T04:26:41;1.10;99.90
18794;DHT22;29610;49.022;12.114;2022-11-20T04:29:12;1.10;99.90
18794;DHT22;29610;49.022;12.114;2022-11-20T04:31:40;1.10;99.90
18794;DHT22;29610;49.022;12.114;2022-11-20T04:34:11;1.10;99.90
18794;DHT22;29610;49.022;12.114;2022-11-20T04:36:40;1.00;99.90
18794;DHT22;29610;49.022;12.114;2022-11-20T04:39:12;1.10;99.90
18794;DHT22;29610;49.022;12.114;2022-11-20T04:41:42;1.10;99.90
18794;DHT22;29610;49.022;12.114;2022-11-20T04:44:12;1.20;99.90
18794;DHT22;29610;49.022;12.114;2022-11-20T04:46:42;1.10;99.90
18794;DHT22;29610;49.022;12.114;2022-11-20T04:49:11;1.10;99.90
18794;DHT22;29610;49.022;12.114;2022-11-20T04:51:39;1.10;99.90
18794;DHT22;29610;49.022;12.114;2022-11-20T04:54:09;1.10;99.90
18794;DHT22;29610;49.022;12.114;2022-11-20T04:56:39;1.10;99.90
18794;DHT22;29610;49.022;12.114;2022-11-20T04:59:07;1.10;99.90
18794;DHT22;29610;49.022;12.114;2022-11-20T05:01:38;1.10;99.90
18794;DHT22;29610;49.022;12.114;2022-11-20T05:04:06;1.10;99.90
18794;DHT22;29610;49.022;12.114;2022-11-20T05:06:35;1.10;99.90
18794;DHT22;29610;49.022;12.114;2022-11-20T05:09:04;1.10;99.90
18794;DHT22;29610;49.022;12.114;2022-11-20T05:11:33;1.10;99.90
18794;DHT22;29610;49.022;12.114;2022-11-20T05:14:01;1.10;99.90
18794;DHT22;29610;49.022;12.114;2022-11-20T05:16:30;1.10;99.90
18794;DHT22;29610;49.022;12.114;2022-11-20T05:19:00;1.20;99.90
18794;DHT22;29610;49.022;12.114;2022-11-20T05:21:30;1.10;99.90
18794;DHT22;29610;49.022;12.114;2022-11-20T05:23:59;1.20;99.90
18794;DHT22;29610;49.022;12.114;2022-11-20T05:26:27;1.20;99.90
18794;DHT22;29610;49.022;12.114;2022-11-20T05:28:56;1.10;99.90
18794;DHT22;29610;49.022;12.114;2022-11-20T05:31:25;1.10;99.90
18794;DHT22;29610;49.022;12.114;2022-11-20T05:33:55;1.10;99.90
18794;DHT22;29610;49.022;12.114;2022-11-20T05:36:26;1.10;99.90
18794;DHT22;29610;49.022;12.114;2022-11-20T05:38:54;1.10;99.90
18794;DHT22;29610;49.022;12.114;2022-11-20T05:41:28;1.00;99.90
18794;DHT22;29610;49.022;12.114;2022-11-20T05:43:57;1.00;99.90
18794;DHT22;29610;49.022;12.114;2022-11-20T05:46:26;1.00;99.90
18794;DHT22;29610;49.022;12.114;2022-11-20T05:48:56;1.10;99.90
18794;DHT22;29610;49.022;12.114;2022-11-20T05:51:27;1.00;99.90
18794;DHT22;29610;49.022;12.114;2022-11-20T05:53:56;1.00;99.90
18794;DHT22;29610;49.022;12.114;2022-11-20T05:56:26;1.10;99.90
18794;DHT22;29610;49.022;12.114;2022-11-20T05:58:55;1.10;99.90
18794;DHT22;29610;49.022;12.114;2022-11-20T06:01:25;1.20;99.90
18794;DHT22;29610;49.022;12.114;2022-11-20T06:03:54;1.00;99.90
18794;DHT22;29610;49.022;12.114;2022-11-20T06:06:23;1.00;99.90
18794;DHT22;29610;49.022;12.114;2022-11-20T06:08:54;1.10;99.90
18794;DHT22;29610;49.022;12.114;2022-11-20T06:11:23;1.10;99.90
18794;DHT22;29610;49.022;12.114;2022-11-20T06:13:52;1.10;99.90
18794;DHT22;29610;49.022;12.114;2022-11-20T06:16:20;1.20;99.90
18794;DHT22;29610;49.022;12.114;2022-11-20T06:18:49;1.10;99.90
18794;DHT22;29610;49.022;12.114;2022-11-20T06:21:19;1.10;99.90
18794;DHT22;29610;49.022;12.114;2022-11-20T06:23:50;1.20;99.90
18794;DHT22;29610;49.022;12.114;2022-11-20T06:26:23;1.20;99.90
18794;DHT22;29610;49.022;12.114;2022-11-20T06:28:54;1.10;99.90
18794;DHT22;29610;49.022;12.114;2022-11-20T06:31:25;1.10;99.90
18794;DHT22;29610;49.022;12.114;2022-11-20T06:33:54;1.10;99.90
18794;DHT22;29610;49.022;12.114;2022-11-20T06:36:23;1.10;99.90
18794;DHT22;29610;49.022;12.114;2022-11-20T06:38:52;1.10;99.90
18794;DHT22;29610;49.022;12.114;2022-11-20T06:41:22;1.10;99.90
18794;DHT22;29610;49.022;12.114;2022-11-20T06:43:51;1.20;99.90
18794;DHT22;29610;49.022;12.114;2022-11-20T06:46:20;1.30;99.90
18794;DHT22;29610;49.022;12.114;2022-11-20T06:48:49;1.20;99.90
18794;DHT22;29610;49.022;12.114;2022-11-20T06:51:18;1.30;99.90
18794;DHT22;29610;49.022;12.114;2022-11-20T06:53:48;1.20;99.90
18794;DHT22;29610;49.022;12.114;2022-11-20T06:56:17;1.20;99.90
18794;DHT22;29610;49.022;12.114;2022-11-20T06:58:47;1.30;99.90
18794;DHT22;29610;49.022;12.114;2022-11-20T07:01:16;1.30;99.90
18794;DHT22;29610;49.022;12.114;2022-11-20T07:03:44;1.40;99.90
18794;DHT22;29610;49.022;12.114;2022-11-20T07:06:20;1.30;99.90
18794;DHT22;29610;49.022;12.114;2022-11-20T07:08:50;1.30;99.90
18794;DHT22;29610;49.022;12.114;2022-11-20T07:11:19;1.30;99.90
18794;DHT22;29610;49.022;12.114;2022-11-20T07:13:50;1.40;99.90
18794;DHT22;29610;49.022;12.114;2022-11-20T07:16:18;1.40;99.90
18794;DHT22;29610;49.022;12.114;2022-11-20T07:18:47;1.50;99.90
18794;DHT22;29610;49.022;12.114;2022-11-20T07:21:17;1.50;99.90
18794;DHT22;29610;49.022;12.114;2022-11-20T07:23:46;1.50;99.90
18794;DHT22;29610;49.022;12.114;2022-11-20T07:26:16;1.60;99.90
18794;DHT22;29610;49.022;12.114;2022-11-20T07:28:45;1.60;99.90
18794;DHT22;29610;49.022;12.114;2022-11-20T07:31:15;1.60;99.90
18794;DHT22;29610;49.022;12.114;2022-11-20T07:33:45;2.20;99.90
18794;DHT22;29610;49.022;12.114;2022-11-20T07:36:14;1.70;99.90
18794;DHT22;29610;49.022;12.114;2022-11-20T07:38:43;1.70;99.90
18794;DHT22;29610;49.022;12.114;2022-11-20T07:41:12;1.80;99.90
18794;DHT22;29610;49.022;12.114;2022-11-20T07:43:40;1.80;99.90
18794;DHT22;29610;49.022;12.114;2022-11-20T07:46:09;1.80;99.90
18794;DHT22;29610;49.022;12.114;2022-11-20T07:48:39;1.80;99.90
18794;DHT22;29610;49.022;12.114;2022-11-20T07:51:08;1.80;99.90
18794;DHT22;29610;49.022;12.114;2022-11-20T07:53:37;1.90;99.90
18794;DHT22;29610;49.022;12.114;2022-11-20T07:56:06;1.90;99.90
18794;DHT22;29610;49.022;12.114;2022-11-20T07:58:35;1.90;99.90
18794;DHT22;29610;49.022;12.114;2022-11-20T08:01:04;2.00;99.90
18794;DHT22;29610;49.022;12.114;2022-11-20T08:03:34;2.20;99.90
18794;DHT22;29610;49.022;12.114;2022-11-20T08:06:07;2.20;99.90
18794;DHT22;29610;49.022;12.114;2022-11-20T08:08:36;2.30;99.90
18794;DHT22;29610;49.022;12.114;2022-11-20T08:11:09;2.30;99.90
18794;DHT22;29610;49.022;12.114;2022-11-20T08:13:55;2.40;99.90
18794;DHT22;29610;49.022;12.114;2022-11-20T08:16:44;2.50;99.90
18794;DHT22;29610;49.022;12.114;2022-11-20T08:19:15;2.60;99.90
18794;DHT22;29610;49.022;12.114;2022-11-20T08:21:47;2.60;99.90
18794;DHT22;29610;49.022;12.114;2022-11-20T08:24:16;2.70;99.90
18794;DHT22;29610;49.022;12.114;2022-11-20T08:26:45;3.20;99.90
18794;DHT22;29610;49.022;12.114;2022-11-20T08:29:13;3.00;99.90
18794;DHT22;29610;49.022;12.114;2022-11-20T08:31:42;3.00;99.90
18794;DHT22;29610;49.022;12.114;2022-11-20T08:34:11;2.90;99.90
18794;DHT22;29610;49.022;12.114;2022-11-20T08:36:46;2.80;99.90
18794;DHT22;29610;49.022;12.114;2022-11-20T08:39:15;2.80;99.90
18794;DHT22;29610;49.022;12.114;2022-11-20T08:41:44;2.90;99.90
18794;DHT22;29610;49.022;12.114;2022-11-20T08:44:12;2.90;99.90
18794;DHT22;29610;49.022;12.114;2022-11-20T08:46:42;3.00;99.90
18794;DHT22;29610;49.022;12.114;2022-11-20T08:49:13;3.10;99.90
18794;DHT22;29610;49.022;12.114;2022-11-20T08:51:42;3.00;99.90
18794;DHT22;29610;49.022;12.114;2022-11-20T08:54:13;3.00;99.90
18794;DHT22;29610;49.022;12.114;2022-11-20T08:56:42;3.10;99.90
18794;DHT22;29610;49.022;12.114;2022-11-20T08:59:10;3.10;99.90
18794;DHT22;29610;49.022;12.114;2022-11-20T09:01:59;3.30;99.90
18794;DHT22;29610;49.022;12.114;2022-11-20T09:04:28;3.40;99.90
18794;DHT22;29610;49.022;12.114;2022-11-20T09:06:59;3.50;99.90
18794;DHT22;29610;49.022;12.114;2022-11-20T09:09:32;3.60;99.90
18794;DHT22;29610;49.022;12.114;2022-11-20T09:12:01;3.70;99.90
18794;DHT22;29610;49.022;12.114;2022-11-20T09:14:30;3.70;99.90
18794;DHT22;29610;49.022;12.114;2022-11-20T09:16:59;3.60;99.90
18794;DHT22;29610;49.022;12.114;2022-11-20T09:19:28;2.80;99.90
18794;DHT22;29610;49.022;12.114;2022-11-20T09:22:07;3.70;99.90
18794;DHT22;29610;49.022;12.114;2022-11-20T09:24:37;3.90;99.90
18794;DHT22;29610;49.022;12.114;2022-11-20T09:27:06;4.00;99.90
18794;DHT22;29610;49.022;12.114;2022-11-20T09:29:34;4.00;99.90
18794;DHT22;29610;49.022;12.114;2022-11-20T09:32:04;4.10;99.90
18794;DHT22;29610;49.022;12.114;2022-11-20T09:34:33;4.20;99.90
18794;DHT22;29610;49.022;12.114;2022-11-20T09:37:01;4.40;99.90
18794;DHT22;29610;49.022;12.114;2022-11-20T09:39:34;4.70;99.90
18794;DHT22;29610;49.022;12.114;2022-11-20T09:42:21;4.90;99.90
18794;DHT22;29610;49.022;12.114;2022-11-20T09:45:18;5.00;99.90
18794;DHT22;29610;49.022;12.114;2022-11-20T09:48:03;5.10;99.90
18794;DHT22;29610;49.022;12.114;2022-11-20T09:50:45;5.20;99.90
18794;DHT22;29610;49.022;12.114;2022-11-20T09:53:26;5.30;99.90
18794;DHT22;29610;49.022;12.114;2022-11-20T09:56:01;5.40;99.90
18794;DHT22;29610;49.022;12.114;2022-11-20T09:58:38;5.40;99.90
18794;DHT22;29610;49.022;12.114;2022-11-20T10:01:12;5.20;99.90
18794;DHT22;29610;49.022;12.114;2022-11-20T10:03:51;5.10;99.90
18794;DHT22;29610;49.022;12.114;2022-11-20T10:06:29;5.00;99.90
18794;DHT22;29610;49.022;12.114;2022-11-20T10:09:18;5.00;99.90
18794;DHT22;29610;49.022;12.114;2022-11-20T10:12:03;4.80;99.90
18794;DHT22;29610;49.022;12.114;2022-11-20T10:14:55;4.70;99.90
18794;DHT22;29610;49.022;12.114;2022-11-20T10:17:54;4.60;99.90
18794;DHT22;29610;49.022;12.114;2022-11-20T10:20:46;4.60;99.90
18794;DHT22;29610;49.022;12.114;2022-11-20T10:23:47;4.50;99.90
18794;DHT22;29610;49.022;12.114;2022-11-20T10:26:40;4.50;99.90
18794;DHT22;29610;49.022;12.114;2022-11-20T10:29:14;4.40;99.90
18794;DHT22;29610;49.022;12.114;2022-11-20T10:31:49;4.40;99.90
18794;DHT22;29610;49.022;12.114;2022-11-20T10:34:26;4.50;99.90
18794;DHT22;29610;49.022;12.114;2022-11-20T10:37:00;4.80;99.90
18794;DHT22;29610;49.022;12.114;2022-11-20T10:39:42;4.60;99.90
18794;DHT22;29610;49.022;12.114;2022-11-20T10:42:26;4.80;99.90
18794;DHT22;29610;49.022;12.114;2022-11-20T10:45:09;4.40;99.90
18794;DHT22;29610;49.022;12.114;2022-11-20T10:47:48;4.80;99.90
18794;DHT22;29610;49.022;12.114;2022-11-20T10:50:19;4.70;99.90
18794;DHT22;29610;49.022;12.114;2022-11-20T10:52:55;4.80;99.90
18794;DHT22;29610;49.022;12.114;2022-11-20T10:55:39;4.90;99.90
18794;DHT22;29610;49.022;12.114;2022-11-20T10:58:20;4.90;99.90
18794;DHT22;29610;49.022;12.114;2022-11-20T11:01:16;5.00;99.90
18794;DHT22;29610;49.022;12.114;2022-11-20T11:03:59;5.10;99.90
18794;DHT22;29610;49.022;12.114;2022-11-20T11:06:32;5.10;99.90
18794;DHT22;29610;49.022;12.114;2022-11-20T11:09:12;5.20;99.90
18794;DHT22;29610;49.022;12.114;2022-11-20T11:11:54;5.30;99.90
18794;DHT22;29610;49.022;12.114;2022-11-20T11:14:45;5.30;99.90
18794;DHT22;29610;49.022;12.114;2022-11-20T11:17:27;5.20;99.90
18794;DHT22;29610;49.022;12.114;2022-11-20T11:20:14;5.20;99.90
18794;DHT22;29610;49.022;12.114;2022-11-20T11:22:47;5.20;99.90
18794;DHT22;29610;49.022;12.114;2022-11-20T11:25:23;5.10;99.90
18794;DHT22;29610;49.022;12.114;2022-11-20T11:27:57;5.10;99.90
18794;DHT22;29610;49.022;12.114;2022-11-20T11:30:30;5.10;99.90
18794;DHT22;29610;49.022;12.114;2022-11-20T11:33:10;4.90;99.90
18794;DHT22;29610;49.022;12.114;2022-11-20T11:35:47;4.80;99.90
18794;DHT22;29610;49.022;12.114;2022-11-20T11:38:23;4.80;99.90
18794;DHT22;29610;49.022;12.114;2022-11-20T11:40:57;4.80;99.90
18794;DHT22;29610;49.022;12.114;2022-11-20T11:43:29;4.80;99.90
18794;DHT22;29610;49.022;12.114;2022-11-20T11:46:35;4.80;99.90
18794;DHT22;29610;49.022;12.114;2022-11-20T11:49:16;4.80;99.90
18794;DHT22;29610;49.022;12.114;2022-11-20T11:52:00;4.80;99.90
18794;DHT22;29610;49.022;12.114;2022-11-20T11:54:38;5.00;99.90
18794;DHT22;29610;49.022;12.114;2022-11-20T11:57:18;5.10;99.90
18794;DHT22;29610;49.022;12.114;2022-11-20T12:00:00;5.30;99.90
18794;DHT22;29610;49.022;12.114;2022-11-20T12:02:36;5.40;99.90
18794;DHT22;29610;49.022;12.114;2022-11-20T12:05:18;5.50;99.90
18794;DHT22;29610;49.022;12.114;2022-11-20T12:07:54;5.50;99.90
18794;DHT22;29610;49.022;12.114;2022-11-20T12:10:40;5.30;99.90
18794;DHT22;29610;49.022;12.114;2022-11-20T12:13:42;5.40;99.90
18794;DHT22;29610;49.022;12.114;2022-11-20T12:16:19;5.60;99.90
18794;DHT22;29610;49.022;12.114;2022-11-20T12:18:50;5.70;99.90
18794;DHT22;29610;49.022;12.114;2022-11-20T12:21:28;5.80;99.90
18794;DHT22;29610;49.022;12.114;2022-11-20T12:24:14;5.80;99.90
18794;DHT22;29610;49.022;12.114;2022-11-20T12:27:08;5.70;99.90
18794;DHT22;29610;49.022;12.114;2022-11-20T12:30:08;5.80;99.90
18794;DHT22;29610;49.022;12.114;2022-11-20T12:32:56;5.90;99.90
18794;DHT22;29610;49.022;12.114;2022-11-20T12:35:44;5.60;99.90
18794;DHT22;29610;49.022;12.114;2022-11-20T12:39:00;5.90;99.90
18794;DHT22;29610;49.022;12.114;2022-11-20T12:42:00;5.80;99.90
18794;DHT22;29610;49.022;12.114;2022-11-20T12:48:38;5.80;99.90
18794;DHT22;29610;49.022;12.114;2022-11-20T12:51:30;5.70;99.90
18794;DHT22;29610;49.022;12.114;2022-11-20T12:54:31;5.70;99.90
18794;DHT22;29610;49.022;12.114;2022-11-20T12:57:21;5.70;99.90
18794;DHT22;29610;49.022;12.114;2022-11-20T13:00:16;5.70;99.90
18794;DHT22;29610;49.022;12.114;2022-11-20T13:03:09;5.80;99.90
18794;DHT22;29610;49.022;12.114;2022-11-20T13:05:59;5.80;99.90
18794;DHT22;29610;49.022;12.114;2022-11-20T13:08:40;5.80;99.90
18794;DHT22;29610;49.022;12.114;2022-11-20T13:11:18;5.90;99.90
18794;DHT22;29610;49.022;12.114;2022-11-20T13:14:05;5.90;99.90
18794;DHT22;29610;49.022;12.114;2022-11-20T13:16:50;5.90;99.90
18794;DHT22;29610;49.022;12.114;2022-11-20T13:19:28;5.90;99.90
18794;DHT22;29610;49.022;12.114;2022-11-20T13:21:58;6.00;99.90
18794;DHT22;29610;49.022;12.114;2022-11-20T13:24:29;6.00;99.90
18794;DHT22;29610;49.022;12.114;2022-11-20T13:27:02;6.00;99.90
18794;DHT22;29610;49.022;12.114;2022-11-20T13:29:43;6.00;99.90
18794;DHT22;29610;49.022;12.114;2022-11-20T13:32:18;6.10;99.90
18794;DHT22;29610;49.022;12.114;2022-11-20T13:34:52;6.00;99.90
18794;DHT22;29610;49.022;12.114;2022-11-20T13:37:28;6.10;99.90
18794;DHT22;29610;49.022;12.114;2022-11-20T13:40:13;6.20;99.90
18794;DHT22;29610;49.022;12.114;2022-11-20T13:43:01;6.10;99.90
18794;DHT22;29610;49.022;12.114;2022-11-20T13:45:36;6.10;99.90
18794;DHT22;29610;49.022;12.114;2022-11-20T13:48:19;6.10;99.90
18794;DHT22;29610;49.022;12.114;2022-11-20T13:51:12;6.10;99.90
18794;DHT22;29610;49.022;12.114;2022-11-20T13:54:15;6.10;99.90
18794;DHT22;29610;49.022;12.114;2022-11-20T13:57:04;6.00;99.90
18794;DHT22;29610;49.022;12.114;2022-11-20T13:59:54;5.90;99.90
18794;DHT22;29610;49.022;12.114;2022-11-20T14:02:30;5.90;99.90
18794;DHT22;29610;49.022;12.114;2022-11-20T14:04:59;5.90;99.90
18794;DHT22;29610;49.022;12.114;2022-11-20T14:07:35;5.90;99.90
18794;DHT22;29610;49.022;12.114;2022-11-20T14:10:20;5.90;99.90
18794;DHT22;29610;49.022;12.114;2022-11-20T14:13:09;5.80;99.90
18794;DHT22;29610;49.022;12.114;2022-11-20T14:15:40;5.80;99.90
18794;DHT22;29610;49.022;12.114;2022-11-20T14:18:13;5.70;99.90
18794;DHT22;29610;49.022;12.114;2022-11-20T14:20:47;5.70;99.90
18794;DHT22;29610;49.022;12.114;2022-11-20T14:23:24;5.60;99.90
18794;DHT22;29610;49.022;12.114;2022-11-20T14:25:58;5.50;99.90
18794;DHT22;29610;49.022;12.114;2022-11-20T14:28:28;5.50;99.90
18794;DHT22;29610;49.022;12.114;2022-11-20T14:31:01;5.40;99.90
18794;DHT22;29610;49.022;12.114;2022-11-20T14:33:32;5.30;99.90
18794;DHT22;29610;49.022;12.114;2022-11-20T14:36:02;5.20;99.90
18794;DHT22;29610;49.022;12.114;2022-11-20T14:38:32;5.10;99.90
18794;DHT22;29610;49.022;12.114;2022-11-20T14:41:19;5.00;99.90
18794;DHT22;29610;49.022;12.114;2022-11-20T14:43:53;5.00;99.90
18794;DHT22;29610;49.022;12.114;2022-11-20T14:46:26;5.00;99.90
18794;DHT22;29610;49.022;12.114;2022-11-20T14:49:14;4.90;99.90
18794;DHT22;29610;49.022;12.114;2022-11-20T14:51:45;4.90;99.90
18794;DHT22;29610;49.022;12.114;2022-11-20T14:54:15;4.90;99.90
18794;DHT22;29610;49.022;12.114;2022-11-20T14:56:54;4.90;99.90
18794;DHT22;29610;49.022;12.114;2022-11-20T14:59:24;4.90;99.90
18794;DHT22;29610;49.022;12.114;2022-11-20T15:01:58;4.80;99.90
18794;DHT22;29610;49.022;12.114;2022-11-20T15:04:30;4.80;99.90
18794;DHT22;29610;49.022;12.114;2022-11-20T15:06:59;4.90;99.90
18794;DHT22;29610;49.022;12.114;2022-11-20T15:09:28;4.90;99.90
18794;DHT22;29610;49.022;12.114;2022-11-20T15:11:59;4.90;99.90
18794;DHT22;29610;49.022;12.114;2022-11-20T15:14:31;4.90;99.90
18794;DHT22;29610;49.022;12.114;2022-11-20T15:17:07;5.00;99.90
18794;DHT22;29610;49.022;12.114;2022-11-20T15:19:38;5.00;99.90
18794;DHT22;29610;49.022;12.114;2022-11-20T15:22:09;5.00;99.90
18794;DHT22;29610;49.022;12.114;2022-11-20T15:24:43;4.90;99.90
18794;DHT22;29610;49.022;12.114;2022-11-20T15:27:11;4.90;99.90
18794;DHT22;29610;49.022;12.114;2022-11-20T15:29:41;4.90;99.90
18794;DHT22;29610;49.022;12.114;2022-11-20T15:32:12;4.90;99.90
18794;DHT22;29610;49.022;12.114;2022-11-20T15:34:40;4.90;99.90
18794;DHT22;29610;49.022;12.114;2022-11-20T15:37:09;4.90;99.90
18794;DHT22;29610;49.022;12.114;2022-11-20T15:39:38;5.00;99.90
18794;DHT22;29610;49.022;12.114;2022-11-20T15:42:06;5.00;99.90
18794;DHT22;29610;49.022;12.114;2022-11-20T15:44:35;4.90;99.90
18794;DHT22;29610;49.022;12.114;2022-11-20T15:47:05;4.70;99.90
18794;DHT22;29610;49.022;12.114;2022-11-20T15:49:35;4.60;99.90
18794;DHT22;29610;49.022;12.114;2022-11-20T15:52:05;4.70;99.90
18794;DHT22;29610;49.022;12.114;2022-11-20T15:54:36;4.50;99.90
18794;DHT22;29610;49.022;12.114;2022-11-20T15:57:05;4.40;99.90
18794;DHT22;29610;49.022;12.114;2022-11-20T15:59:33;4.40;99.90
18794;DHT22;29610;49.022;12.114;2022-11-20T16:02:07;4.30;99.90
18794;DHT22;29610;49.022;12.114;2022-11-20T16:04:46;4.10;99.90
18794;DHT22;29610;49.022;12.114;2022-11-20T16:07:15;4.10;99.90
18794;DHT22;29610;49.022;12.114;2022-11-20T16:09:44;4.00;99.90
18794;DHT22;29610;49.022;12.114;2022-11-20T16:12:15;4.00;99.90
18794;DHT22;29610;49.022;12.114;2022-11-20T16:15:05;4.00;99.90
18794;DHT22;29610;49.022;12.114;2022-11-20T16:17:53;4.00;99.90